RYR9GA EGSS-EPKK
Flight info
| Callsign | RYR9GA |
|---|---|
| Flight time | N/A |
| Altitude | 35000 |
| Route | CLN P44 RATLO M197 REDFA DCT TACHA DCT OTMEC DCT ZUCKA DCT DESAR DCT LASIS T714 MOFKE |
| Aircraft | B738/M-SDE2E3FGHIRWXY/LB1 |
Departure
| Time | N/A |
|---|---|
| Airport | London Stansted Airport (EGSS) |
Arrival
| Time | 2026-05-04 15:03 |
|---|---|
| Airport | Kraków John Paul II International Airport (EPKK) |
| Time | Latitude | Longitude | Altitude | Speed | Heading |
|---|---|---|---|---|---|
| 2026-05-04 14:07 | 51.84886 | 8.98306 | 34912 ft | 560 kts | 103° |
| 2026-05-04 14:08 | 51.83839 | 9.10806 | 34912 ft | 560 kts | 103° |
| 2026-05-04 14:08 | 51.82762 | 9.23471 | 34912 ft | 560 kts | 103° |
| 2026-05-04 14:09 | 51.81135 | 9.42289 | 34912 ft | 560 kts | 103° |
| 2026-05-04 14:10 | 51.79477 | 9.61090 | 34911 ft | 560 kts | 103° |
| 2026-05-04 14:10 | 51.78380 | 9.73478 | 34912 ft | 559 kts | 104° |
| 2026-05-04 14:11 | 51.77254 | 9.86056 | 34912 ft | 559 kts | 104° |
| 2026-05-04 14:11 | 51.75531 | 10.04861 | 34912 ft | 560 kts | 104° |
| 2026-05-04 14:12 | 51.74372 | 10.17279 | 34912 ft | 560 kts | 104° |
| 2026-05-04 14:13 | 51.72603 | 10.35956 | 34912 ft | 560 kts | 104° |
| 2026-05-04 14:13 | 51.71410 | 10.48352 | 34912 ft | 560 kts | 104° |
| 2026-05-04 14:14 | 51.70218 | 10.60606 | 34911 ft | 560 kts | 104° |
| 2026-05-04 14:14 | 51.68414 | 10.79085 | 34912 ft | 559 kts | 105° |
| 2026-05-04 14:15 | 51.66990 | 11.04180 | 34912 ft | 565 kts | 96° |
| 2026-05-04 14:16 | 51.66489 | 11.23214 | 34912 ft | 565 kts | 96° |
| 2026-05-04 14:17 | 51.65947 | 11.42345 | 34912 ft | 565 kts | 96° |
| 2026-05-04 14:18 | 51.65376 | 11.61346 | 34912 ft | 565 kts | 96° |
| 2026-05-04 14:19 | 51.64601 | 11.86372 | 34912 ft | 564 kts | 97° |
| 2026-05-04 14:19 | 51.64182 | 11.99055 | 34912 ft | 565 kts | 97° |
| 2026-05-04 14:20 | 51.63599 | 12.11719 | 34912 ft | 562 kts | 101° |
| 2026-05-04 14:20 | 51.62693 | 12.24304 | 34912 ft | 562 kts | 101° |
| 2026-05-04 14:21 | 51.61336 | 12.43163 | 34912 ft | 562 kts | 101° |
| 2026-05-04 14:21 | 51.60425 | 12.55796 | 34912 ft | 562 kts | 101° |
| 2026-05-04 14:22 | 51.59515 | 12.68336 | 34911 ft | 562 kts | 102° |
| 2026-05-04 14:22 | 51.58607 | 12.80898 | 34912 ft | 561 kts | 102° |
| 2026-05-04 14:23 | 51.57206 | 12.99727 | 34912 ft | 562 kts | 102° |
| 2026-05-04 14:24 | 51.56251 | 13.12283 | 34912 ft | 562 kts | 102° |
| 2026-05-04 14:24 | 51.55284 | 13.24788 | 34912 ft | 562 kts | 102° |
| 2026-05-04 14:25 | 51.54302 | 13.37308 | 34912 ft | 562 kts | 102° |
| 2026-05-04 14:25 | 51.52803 | 13.56074 | 34912 ft | 562 kts | 102° |
| 2026-05-04 14:26 | 51.51797 | 13.68482 | 34911 ft | 561 kts | 103° |
| 2026-05-04 14:26 | 51.50785 | 13.80985 | 34912 ft | 561 kts | 103° |
| 2026-05-04 14:27 | 51.49754 | 13.93457 | 34912 ft | 561 kts | 103° |
| 2026-05-04 14:27 | 51.48700 | 14.05969 | 34912 ft | 562 kts | 103° |
| 2026-05-04 14:28 | 51.47628 | 14.18517 | 34912 ft | 561 kts | 103° |
| 2026-05-04 14:28 | 51.46549 | 14.30963 | 34912 ft | 561 kts | 103° |
| 2026-05-04 14:29 | 51.44341 | 14.55937 | 34912 ft | 562 kts | 103° |
| 2026-05-04 14:30 | 51.43224 | 14.68369 | 34911 ft | 561 kts | 103° |
| 2026-05-04 14:31 | 51.41473 | 14.87059 | 34911 ft | 558 kts | 107° |
| 2026-05-04 14:32 | 51.36850 | 15.10557 | 34912 ft | 546 kts | 120° |
| 2026-05-04 14:32 | 51.33985 | 15.21892 | 34912 ft | 545 kts | 121° |
| 2026-05-04 14:33 | 51.31095 | 15.33115 | 34912 ft | 545 kts | 121° |
| 2026-05-04 14:33 | 51.28153 | 15.44407 | 34912 ft | 545 kts | 121° |
| 2026-05-04 14:34 | 51.25215 | 15.55594 | 34912 ft | 545 kts | 121° |
| 2026-05-04 14:34 | 51.22274 | 15.66726 | 34911 ft | 544 kts | 122° |
| 2026-05-04 14:35 | 51.19311 | 15.77944 | 34911 ft | 543 kts | 122° |
| 2026-05-04 14:35 | 51.16334 | 15.89146 | 34912 ft | 544 kts | 121° |
| 2026-05-04 14:36 | 51.13432 | 16.00397 | 34912 ft | 545 kts | 121° |
| 2026-05-04 14:36 | 51.10549 | 16.11569 | 34912 ft | 545 kts | 121° |
| 2026-05-04 14:37 | 51.07614 | 16.22856 | 34912 ft | 545 kts | 121° |
| 2026-05-04 14:37 | 51.04697 | 16.34014 | 34912 ft | 545 kts | 121° |
| 2026-05-04 14:38 | 51.01754 | 16.45205 | 34912 ft | 545 kts | 121° |
| 2026-05-04 14:38 | 50.98779 | 16.56460 | 34912 ft | 545 kts | 121° |
| 2026-05-04 14:39 | 50.95829 | 16.67566 | 34912 ft | 544 kts | 122° |
| 2026-05-04 14:39 | 50.92875 | 16.78696 | 34911 ft | 543 kts | 122° |
| 2026-05-04 14:40 | 50.88423 | 16.95307 | 34912 ft | 544 kts | 122° |
| 2026-05-04 14:40 | 50.85432 | 17.06386 | 34912 ft | 544 kts | 122° |
| 2026-05-04 14:41 | 50.82423 | 17.17444 | 34912 ft | 544 kts | 122° |
| 2026-05-04 14:42 | 50.76295 | 17.39557 | 34912 ft | 544 kts | 122° |
| 2026-05-04 14:42 | 50.73215 | 17.50600 | 34912 ft | 544 kts | 122° |
| 2026-05-04 14:43 | 50.70187 | 17.61592 | 34898 ft | 544 kts | 122° |
| 2026-05-04 14:43 | 50.68689 | 17.67054 | 34513 ft | 539 kts | 122° |
| 2026-05-04 14:43 | 50.67225 | 17.72394 | 33598 ft | 544 kts | 122° |
| 2026-05-04 14:44 | 50.65683 | 17.77971 | 32514 ft | 550 kts | 122° |
| 2026-05-04 14:44 | 50.64140 | 17.83533 | 31551 ft | 552 kts | 121° |
| 2026-05-04 14:44 | 50.62600 | 17.89080 | 30649 ft | 552 kts | 121° |
| 2026-05-04 14:44 | 50.61071 | 17.94584 | 29997 ft | 545 kts | 121° |
| 2026-05-04 14:45 | 50.59370 | 17.99860 | 29269 ft | 532 kts | 128° |
| 2026-05-04 14:45 | 50.57713 | 18.05105 | 28538 ft | 538 kts | 117° |
| 2026-05-04 14:45 | 50.56606 | 18.10811 | 27792 ft | 540 kts | 109° |
| 2026-05-04 14:45 | 50.55684 | 18.16552 | 27074 ft | 535 kts | 109° |
| 2026-05-04 14:46 | 50.54790 | 18.22205 | 26367 ft | 529 kts | 109° |
| 2026-05-04 14:46 | 50.53875 | 18.27836 | 25664 ft | 523 kts | 109° |
| 2026-05-04 14:46 | 50.52956 | 18.33304 | 24980 ft | 516 kts | 109° |
| 2026-05-04 14:46 | 50.52014 | 18.38772 | 24289 ft | 510 kts | 109° |
| 2026-05-04 14:47 | 50.51071 | 18.44155 | 23601 ft | 504 kts | 109° |
| 2026-05-04 14:47 | 50.50138 | 18.49427 | 22925 ft | 497 kts | 109° |
| 2026-05-04 14:47 | 50.49200 | 18.54675 | 22254 ft | 491 kts | 109° |
| 2026-05-04 14:47 | 50.48280 | 18.59788 | 21591 ft | 485 kts | 109° |
| 2026-05-04 14:48 | 50.47359 | 18.64884 | 20932 ft | 478 kts | 109° |
| 2026-05-04 14:48 | 50.46461 | 18.69842 | 20281 ft | 471 kts | 110° |
| 2026-05-04 14:48 | 50.45580 | 18.74697 | 19645 ft | 464 kts | 110° |
| 2026-05-04 14:48 | 50.44694 | 18.79561 | 19006 ft | 458 kts | 110° |
| 2026-05-04 14:49 | 50.43816 | 18.84358 | 18410 ft | 450 kts | 110° |
| 2026-05-04 14:49 | 50.42953 | 18.89057 | 17812 ft | 443 kts | 110° |
| 2026-05-04 14:49 | 50.42097 | 18.93696 | 17192 ft | 436 kts | 109° |
| 2026-05-04 14:49 | 50.41263 | 18.98203 | 16586 ft | 430 kts | 109° |
| 2026-05-04 14:50 | 50.40452 | 19.02568 | 15997 ft | 424 kts | 109° |
| 2026-05-04 14:50 | 50.39624 | 19.07018 | 15394 ft | 418 kts | 109° |
| 2026-05-04 14:50 | 50.38823 | 19.11309 | 14810 ft | 412 kts | 109° |
| 2026-05-04 14:50 | 50.38014 | 19.15639 | 14219 ft | 406 kts | 109° |
| 2026-05-04 14:51 | 50.37231 | 19.19814 | 13647 ft | 400 kts | 109° |
| 2026-05-04 14:51 | 50.36433 | 19.24060 | 13061 ft | 395 kts | 109° |
| 2026-05-04 14:51 | 50.35668 | 19.28120 | 12504 ft | 389 kts | 108° |
| 2026-05-04 14:51 | 50.34893 | 19.32225 | 11931 ft | 383 kts | 108° |
| 2026-05-04 14:52 | 50.34143 | 19.36200 | 11375 ft | 378 kts | 108° |
| 2026-05-04 14:52 | 50.33400 | 19.40119 | 10821 ft | 372 kts | 108° |
| 2026-05-04 14:52 | 50.32668 | 19.43992 | 10342 ft | 365 kts | 108° |
| 2026-05-04 14:52 | 50.31957 | 19.47735 | 10179 ft | 349 kts | 108° |
| 2026-05-04 14:53 | 50.31276 | 19.51318 | 10107 ft | 332 kts | 108° |
| 2026-05-04 14:53 | 50.30618 | 19.54768 | 9876 ft | 323 kts | 109° |
| 2026-05-04 14:53 | 50.29974 | 19.58122 | 9452 ft | 322 kts | 108° |
| 2026-05-04 14:53 | 50.29327 | 19.61494 | 9049 ft | 319 kts | 108° |
| 2026-05-04 14:54 | 50.28685 | 19.64856 | 8652 ft | 317 kts | 109° |
| 2026-05-04 14:54 | 50.28061 | 19.68103 | 8268 ft | 313 kts | 109° |
| 2026-05-04 14:54 | 50.27431 | 19.71374 | 8014 ft | 305 kts | 109° |
| 2026-05-04 14:54 | 50.26833 | 19.74483 | 7944 ft | 292 kts | 110° |
| 2026-05-04 14:55 | 50.26425 | 19.76594 | 7707 ft | 291 kts | 110° |
| 2026-05-04 14:55 | 50.25827 | 19.79677 | 7368 ft | 289 kts | 110° |
| 2026-05-04 14:55 | 50.25247 | 19.82662 | 7024 ft | 287 kts | 110° |
| 2026-05-04 14:55 | 50.24656 | 19.85702 | 6659 ft | 286 kts | 109° |
| 2026-05-04 14:56 | 50.24079 | 19.88668 | 6308 ft | 285 kts | 109° |
| 2026-05-04 14:56 | 50.23491 | 19.91641 | 5955 ft | 284 kts | 109° |
| 2026-05-04 14:56 | 50.22913 | 19.94640 | 5598 ft | 283 kts | 109° |
| 2026-05-04 14:56 | 50.22342 | 19.97570 | 5235 ft | 282 kts | 109° |
| 2026-05-04 14:57 | 50.21737 | 20.00542 | 4854 ft | 281 kts | 109° |
| 2026-05-04 14:57 | 50.21109 | 20.03383 | 4675 ft | 272 kts | 116° |
| 2026-05-04 14:57 | 50.20062 | 20.05768 | 4600 ft | 253 kts | 143° |
| 2026-05-04 14:57 | 50.18543 | 20.06945 | 4326 ft | 242 kts | 171° |
| 2026-05-04 14:58 | 50.16934 | 20.07469 | 4220 ft | 232 kts | 171° |
| 2026-05-04 14:58 | 50.15367 | 20.08001 | 4144 ft | 223 kts | 172° |
| 2026-05-04 14:58 | 50.13866 | 20.08353 | 4086 ft | 211 kts | 186° |
| 2026-05-04 14:58 | 50.12555 | 20.07747 | 4029 ft | 188 kts | 218° |
| 2026-05-04 14:59 | 50.11736 | 20.06320 | 3846 ft | 173 kts | 242° |
| 2026-05-04 14:59 | 50.11340 | 20.04612 | 3648 ft | 163 kts | 257° |
| 2026-05-04 14:59 | 50.10914 | 20.01235 | 3362 ft | 158 kts | 258° |
| 2026-05-04 15:00 | 50.10672 | 19.99550 | 3210 ft | 159 kts | 258° |
| 2026-05-04 15:00 | 50.10450 | 19.97891 | 3058 ft | 158 kts | 259° |
| 2026-05-04 15:00 | 50.10236 | 19.96196 | 2910 ft | 158 kts | 257° |
| 2026-05-04 15:01 | 50.09781 | 19.92887 | 2429 ft | 156 kts | 257° |
| 2026-05-04 15:01 | 50.09545 | 19.91194 | 2239 ft | 158 kts | 256° |
| 2026-05-04 15:01 | 50.09316 | 19.89604 | 2039 ft | 155 kts | 257° |
| 2026-05-04 15:01 | 50.09094 | 19.88014 | 1825 ft | 142 kts | 257° |
| 2026-05-04 15:02 | 50.08908 | 19.86520 | 1628 ft | 137 kts | 256° |
| 2026-05-04 15:02 | 50.08700 | 19.85064 | 1493 ft | 140 kts | 255° |
| 2026-05-04 15:02 | 50.08450 | 19.83582 | 1259 ft | 141 kts | 258° |
| 2026-05-04 15:02 | 50.08252 | 19.82123 | 1077 ft | 135 kts | 261° |
| 2026-05-04 15:03 | 50.08067 | 19.80673 | 909 ft | 131 kts | 261° |
| 2026-05-04 15:03 | 50.07883 | 19.79289 | 801 ft | 118 kts | 260° |
| 2026-05-04 15:03 | 50.07760 | 19.78399 | 800 ft | 52 kts | 257° |
| 2026-05-04 15:03 | 50.07664 | 19.78104 | 800 ft | 23 kts | 194° |
| 2026-05-04 15:04 | 50.07524 | 19.78096 | 800 ft | 18 kts | 172° |
| 2026-05-04 15:04 | 50.07482 | 19.78254 | 800 ft | 18 kts | 76° |
| 2026-05-04 15:04 | 50.07516 | 19.78452 | 800 ft | 19 kts | 77° |
| 2026-05-04 15:04 | 50.07546 | 19.78667 | 800 ft | 21 kts | 79° |
| 2026-05-04 15:05 | 50.07576 | 19.78885 | 800 ft | 20 kts | 78° |
| 2026-05-04 15:05 | 50.07608 | 19.79106 | 800 ft | 20 kts | 78° |
| 2026-05-04 15:05 | 50.07626 | 19.79322 | 800 ft | 18 kts | 116° |
| 2026-05-04 15:05 | 50.07608 | 19.79411 | 800 ft | 10 kts | 54° |
| 2026-05-04 15:06 | 50.07669 | 19.79547 | 800 ft | 18 kts | 71° |
| 2026-05-04 15:06 | 50.07650 | 19.79692 | 800 ft | 12 kts | 156° |
| 2026-05-04 15:06 | 50.07568 | 19.79732 | 800 ft | 13 kts | 166° |
| 2026-05-04 15:07 | 50.07352 | 19.79766 | 800 ft | 11 kts | 190° |
| 2026-05-04 15:07 | 50.07288 | 19.79781 | 800 ft | 5 kts | 171° |
| 2026-05-04 15:07 | 50.07278 | 19.79783 | 800 ft | 0 kts | 169° |